ADDS METAR Data INFO
IDs: Format: Raw Decoded Include TAF

Data at: 0217 UTC 14 Dec 2017

KSDM 140153Z 15004KT 10SM CLR 17/M13 A2996 RMK AO2 SLP142 T01721128
KSDM 140053Z AUTO 00000KT 10SM CLR 21/M13 A2995 RMK AO2 SLP140 T02061133
KSDM 132353Z 28005KT 10SM CLR 24/M16 A2995 RMK AO2 SLP138 T02391156 10278 20233 56000
KSDM 132253Z 31004KT 10SM CLR 25/M13 A2995 RMK AO2 SLP138 T02501128
KSDM 132153Z 32004KT 10SM CLR 26/M14 A2994 RMK AO2 SLP136 T02561139
KSDM 132053Z 30006KT 10SM CLR 26/M16 A2995 RMK AO2 SLP138 T02611156 58028
KSDM 131953Z VRB05KT 10SM CLR 27/M17 A2997 RMK AO2 SLP146 T02721172
KSDM 131853Z VRB03KT 10SM CLR 27/M18 A3001 RMK AO2 SLP158 T02671178
KSDM 131753Z 16004KT 10SM CLR 23/M16 A3003 RMK AO2 SLP166 T02331161 10233 20089 51006
KSDM 131653Z 15006KT 10SM CLR 21/M16 A3003 RMK AO2 SLP166 T02061161
KSDM 131553Z 14005KT 10SM CLR 17/M15 A3003 RMK AO2 SLP165 T01671150
KSDM 131453Z AUTO 15007KT 10SM CLR 13/M16 A3002 RMK AO2 SLP162 T01331161 53008
KSDM 131353Z AUTO 13004KT 9SM CLR 12/M16 A3000 RMK AO2 SLP157 T01221156
KSDM 131253Z AUTO 15008KT 10SM CLR 12/M16 A2999 RMK AO2 SLP153 T01221156
KSDM 131153Z AUTO 14007KT 10SM CLR 12/M16 A2999 RMK AO2 SLP152 T01221156 10161 20094 58005
KSDM 131053Z AUTO 05004KT 10SM CLR 12/M14 A3001 RMK AO2 SLP158 T01221139
KSDM 130953Z AUTO 06004KT 10SM CLR 14/M14 A3001 RMK AO2 SLP157 T01391139
KSDM 130853Z AUTO 13008KT 10SM CLR 12/M13 A3001 RMK AO2 SLP157 T01171133 58011
KSDM 130753Z AUTO 15005KT 10SM CLR 12/M11 A3002 RMK AO2 SLP163 T01221111 402830067
KSDM 130653Z AUTO 07003KT 10SM CLR 14/M16 A3003 RMK AO2 SLP166 T01441156
KSDM 130553Z AUTO 04003KT 10SM CLR 16/M14 A3004 RMK AO2 SLP168 T01561139 10256 20133 55004
KSDM 130453Z AUTO 05004KT 10SM CLR 17/M14 A3004 RMK AO2 SLP167 T01671139
KSDM 130353Z 05004KT 10SM CLR 17/M11 A3004 RMK AO2 SLP170 T01671111
KSDM 130253Z 18003KT 10SM CLR 16/M08 A3005 RMK AO2 SLP174 T01611083 51007
KSDM 130153Z 00000KT 10SM CLR 19/M08 A3005 RMK AO2 SLP173 T01941083
KSDM 130053Z AUTO 22004KT 10SM CLR 19/M11 A3004 RMK AO2 SLP169 T01891111
KSDM 122353Z 29003KT 10SM CLR 26/M11 A3003 RMK AO2 SLP165 T02561106 10283 20256 56010
KSDM 122253Z 29007KT 10SM CLR 27/M14 A3003 RMK AO2 SLP166 T02721144
KSDM 122153Z 30006KT 10SM CLR 28/M14 A3004 RMK AO2 SLP168 T02781139
KSDM 122053Z 31006KT 10SM CLR 28/M13 A3006 RMK AO2 SLP175 T02781128 58038
KSDM 121953Z 32005KT 10SM CLR 27/M16 A3010 RMK AO2 SLP188 T02721161
KSDM 121853Z 32004KT 10SM CLR 26/M14 A3014 RMK AO2 SLP203 T02611139
KSDM 121753Z 11006KT 10SM CLR 26/M19 A3017 RMK AO2 SLP213 T02561194 10256 20089 58001
KSDM 121653Z 14005KT 10SM CLR 22/M18 A3018 RMK AO2 SLP218 T02221178
KSDM 121553Z 09005KT 10SM CLR 17/M13 A3018 RMK AO2 SLP217 T01671128
KSDM 121453Z AUTO 11005KT 10SM CLR 12/M13 A3018 RMK AO2 SLP217 T01171128 55001